KBGE/BGE METAR and TAF weather

Enter ICAO airport designator
Station Type Date Time Source
KBGE METAR 2020/07/15 07:35 UTC NOAA

KBGE 150735Z AUTO 20003KT 10SM CLR 25/24 A3000 RMK AO2 T02500243


Station Type Date Time Source
KBGE Decoded METAR 2020/07/15 07:35 UTC NOAA

Bainbridge, Decatur County Industrial Air Park Airport, GA, United States (KBGE) 30-58N 084-38W
Jul 15, 2020 - 03:35 AM EDT / 2020.07.15 0735 UTC
Wind: from the SSW (200 degrees) at 3 MPH (3 KT):0
Visibility: 10 mile(s):0
Sky conditions: clear
Temperature: 77.0 F (25.0 C)
Dew Point: 75.7 F (24.3 C)
Relative Humidity: 95%
Pressure (altimeter): 30 in. Hg (1015 hPa)
ob: KBGE 150735Z AUTO 20003KT 10SM CLR 25/24 A3000 RMK AO2 T02500243
cycle: 7

Station Type Date Time Source
KBGE TAF UTC NOAA

Error!

Example: see airport list